sensor_id;sensor_type;location;lat;lon;timestamp;P1;durP1;ratioP1;P2;durP2;ratioP2
26113;SDS011;13966;48.828;9.064;2022-10-26T00:02:21;9.88;;;3.70;;
26113;SDS011;13966;48.828;9.064;2022-10-26T00:04:47;6.38;;;4.10;;
26113;SDS011;13966;48.828;9.064;2022-10-26T00:07:13;7.63;;;3.95;;
26113;SDS011;13966;48.828;9.064;2022-10-26T00:09:39;7.40;;;3.60;;
26113;SDS011;13966;48.828;9.064;2022-10-26T00:12:05;5.53;;;3.60;;
26113;SDS011;13966;48.828;9.064;2022-10-26T00:14:31;10.40;;;4.10;;
26113;SDS011;13966;48.828;9.064;2022-10-26T00:16:57;6.50;;;3.65;;
26113;SDS011;13966;48.828;9.064;2022-10-26T00:19:23;6.43;;;3.10;;
26113;SDS011;13966;48.828;9.064;2022-10-26T00:21:49;7.50;;;3.30;;
26113;SDS011;13966;48.828;9.064;2022-10-26T00:24:15;9.77;;;3.65;;
26113;SDS011;13966;48.828;9.064;2022-10-26T00:26:41;5.93;;;3.53;;
26113;SDS011;13966;48.828;9.064;2022-10-26T00:29:07;6.38;;;3.53;;
26113;SDS011;13966;48.828;9.064;2022-10-26T00:31:34;7.82;;;3.55;;
26113;SDS011;13966;48.828;9.064;2022-10-26T00:34:00;8.50;;;3.85;;
26113;SDS011;13966;48.828;9.064;2022-10-26T00:36:26;7.47;;;3.22;;
26113;SDS011;13966;48.828;9.064;2022-10-26T00:38:53;9.30;;;3.47;;
26113;SDS011;13966;48.828;9.064;2022-10-26T00:41:21;4.93;;;3.58;;
26113;SDS011;13966;48.828;9.064;2022-10-26T00:43:47;7.10;;;3.50;;
26113;SDS011;13966;48.828;9.064;2022-10-26T00:46:35;8.98;;;3.60;;
26113;SDS011;13966;48.828;9.064;2022-10-26T00:49:04;7.43;;;3.25;;
26113;SDS011;13966;48.828;9.064;2022-10-26T00:51:35;6.90;;;3.60;;
26113;SDS011;13966;48.828;9.064;2022-10-26T00:54:04;11.63;;;4.07;;
26113;SDS011;13966;48.828;9.064;2022-10-26T00:56:31;16.90;;;3.30;;
26113;SDS011;13966;48.828;9.064;2022-10-26T00:59:03;7.25;;;3.28;;
26113;SDS011;13966;48.828;9.064;2022-10-26T01:01:29;5.55;;;2.97;;
26113;SDS011;13966;48.828;9.064;2022-10-26T01:03:56;7.85;;;3.30;;
26113;SDS011;13966;48.828;9.064;2022-10-26T01:06:23;7.28;;;3.53;;
26113;SDS011;13966;48.828;9.064;2022-10-26T01:08:49;5.28;;;3.17;;
26113;SDS011;13966;48.828;9.064;2022-10-26T01:11:15;8.13;;;3.72;;
26113;SDS011;13966;48.828;9.064;2022-10-26T01:13:41;7.32;;;3.05;;
26113;SDS011;13966;48.828;9.064;2022-10-26T01:18:46;6.25;;;3.53;;
26113;SDS011;13966;48.828;9.064;2022-10-26T01:31:33;10.20;;;3.70;;
26113;SDS011;13966;48.828;9.064;2022-10-26T01:34:09;11.07;;;3.95;;
26113;SDS011;13966;48.828;9.064;2022-10-26T01:36:41;7.30;;;3.55;;
26113;SDS011;13966;48.828;9.064;2022-10-26T01:39:13;7.28;;;3.63;;
26113;SDS011;13966;48.828;9.064;2022-10-26T01:41:47;10.02;;;3.50;;
26113;SDS011;13966;48.828;9.064;2022-10-26T01:44:22;5.57;;;3.50;;
26113;SDS011;13966;48.828;9.064;2022-10-26T01:46:50;8.35;;;3.40;;
26113;SDS011;13966;48.828;9.064;2022-10-26T01:49:19;9.57;;;3.38;;
26113;SDS011;13966;48.828;9.064;2022-10-26T01:51:46;4.75;;;3.08;;
26113;SDS011;13966;48.828;9.064;2022-10-26T01:54:13;7.20;;;3.13;;
26113;SDS011;13966;48.828;9.064;2022-10-26T01:56:40;4.70;;;2.97;;
26113;SDS011;13966;48.828;9.064;2022-10-26T02:04:58;15.63;;;3.03;;
26113;SDS011;13966;48.828;9.064;2022-10-26T02:07:33;6.88;;;2.55;;
26113;SDS011;13966;48.828;9.064;2022-10-26T02:10:23;5.72;;;2.70;;
26113;SDS011;13966;48.828;9.064;2022-10-26T02:15:34;7.57;;;3.20;;
26113;SDS011;13966;48.828;9.064;2022-10-26T02:20:38;8.32;;;2.65;;
26113;SDS011;13966;48.828;9.064;2022-10-26T02:23:05;5.03;;;3.00;;
26113;SDS011;13966;48.828;9.064;2022-10-26T02:25:33;10.75;;;3.00;;
26113;SDS011;13966;48.828;9.064;2022-10-26T02:28:05;8.98;;;2.90;;
26113;SDS011;13966;48.828;9.064;2022-10-26T02:30:32;10.73;;;3.40;;
26113;SDS011;13966;48.828;9.064;2022-10-26T02:32:59;10.70;;;3.22;;
26113;SDS011;13966;48.828;9.064;2022-10-26T02:35:27;10.48;;;2.88;;
26113;SDS011;13966;48.828;9.064;2022-10-26T02:37:54;12.32;;;3.17;;
26113;SDS011;13966;48.828;9.064;2022-10-26T02:40:23;6.10;;;2.78;;
26113;SDS011;13966;48.828;9.064;2022-10-26T02:42:50;6.47;;;3.08;;
26113;SDS011;13966;48.828;9.064;2022-10-26T02:45:18;5.05;;;2.80;;
26113;SDS011;13966;48.828;9.064;2022-10-26T02:47:45;4.88;;;2.83;;
26113;SDS011;13966;48.828;9.064;2022-10-26T02:50:11;9.57;;;3.10;;
26113;SDS011;13966;48.828;9.064;2022-10-26T02:55:06;4.82;;;2.97;;
26113;SDS011;13966;48.828;9.064;2022-10-26T02:57:35;6.00;;;3.05;;
26113;SDS011;13966;48.828;9.064;2022-10-26T03:00:09;5.83;;;2.57;;
26113;SDS011;13966;48.828;9.064;2022-10-26T03:02:35;7.97;;;3.05;;
26113;SDS011;13966;48.828;9.064;2022-10-26T03:05:20;5.63;;;2.80;;
26113;SDS011;13966;48.828;9.064;2022-10-26T03:07:46;6.40;;;3.05;;
26113;SDS011;13966;48.828;9.064;2022-10-26T03:10:12;7.88;;;3.22;;
26113;SDS011;13966;48.828;9.064;2022-10-26T03:12:38;7.63;;;3.45;;
26113;SDS011;13966;48.828;9.064;2022-10-26T03:15:04;10.05;;;5.25;;
26113;SDS011;13966;48.828;9.064;2022-10-26T03:17:30;9.82;;;3.90;;
26113;SDS011;13966;48.828;9.064;2022-10-26T03:19:56;8.02;;;2.65;;
26113;SDS011;13966;48.828;9.064;2022-10-26T03:22:22;3.92;;;2.83;;
26113;SDS011;13966;48.828;9.064;2022-10-26T03:24:48;9.90;;;2.42;;
26113;SDS011;13966;48.828;9.064;2022-10-26T03:27:14;7.47;;;2.95;;
26113;SDS011;13966;48.828;9.064;2022-10-26T03:29:40;12.93;;;3.10;;
26113;SDS011;13966;48.828;9.064;2022-10-26T03:32:06;9.30;;;3.00;;
26113;SDS011;13966;48.828;9.064;2022-10-26T03:34:32;6.00;;;3.25;;
26113;SDS011;13966;48.828;9.064;2022-10-26T03:36:58;9.40;;;4.07;;
26113;SDS011;13966;48.828;9.064;2022-10-26T03:39:24;8.77;;;3.38;;
26113;SDS011;13966;48.828;9.064;2022-10-26T03:41:50;7.38;;;3.08;;
26113;SDS011;13966;48.828;9.064;2022-10-26T03:44:16;6.35;;;2.85;;
26113;SDS011;13966;48.828;9.064;2022-10-26T03:46:42;5.60;;;2.92;;
26113;SDS011;13966;48.828;9.064;2022-10-26T03:49:08;6.55;;;2.85;;
26113;SDS011;13966;48.828;9.064;2022-10-26T03:51:34;8.30;;;3.17;;
26113;SDS011;13966;48.828;9.064;2022-10-26T03:54:00;6.68;;;3.22;;
26113;SDS011;13966;48.828;9.064;2022-10-26T03:56:26;9.05;;;2.70;;
26113;SDS011;13966;48.828;9.064;2022-10-26T03:58:52;9.93;;;2.50;;
26113;SDS011;13966;48.828;9.064;2022-10-26T04:01:18;6.88;;;2.20;;
26113;SDS011;13966;48.828;9.064;2022-10-26T04:03:44;6.18;;;1.73;;
26113;SDS011;13966;48.828;9.064;2022-10-26T04:06:10;8.43;;;2.15;;
26113;SDS011;13966;48.828;9.064;2022-10-26T04:08:36;4.03;;;1.88;;
26113;SDS011;13966;48.828;9.064;2022-10-26T04:11:02;5.32;;;1.90;;
26113;SDS011;13966;48.828;9.064;2022-10-26T04:13:28;7.47;;;2.30;;
26113;SDS011;13966;48.828;9.064;2022-10-26T04:15:54;5.70;;;2.30;;
26113;SDS011;13966;48.828;9.064;2022-10-26T04:18:20;5.18;;;1.90;;
26113;SDS011;13966;48.828;9.064;2022-10-26T04:20:46;5.47;;;2.13;;
26113;SDS011;13966;48.828;9.064;2022-10-26T04:23:13;6.65;;;2.05;;
26113;SDS011;13966;48.828;9.064;2022-10-26T04:25:40;4.53;;;2.40;;
26113;SDS011;13966;48.828;9.064;2022-10-26T04:28:07;4.78;;;2.40;;
26113;SDS011;13966;48.828;9.064;2022-10-26T04:30:33;5.07;;;2.53;;
26113;SDS011;13966;48.828;9.064;2022-10-26T04:33:00;6.20;;;2.47;;
26113;SDS011;13966;48.828;9.064;2022-10-26T04:35:26;5.43;;;3.00;;
26113;SDS011;13966;48.828;9.064;2022-10-26T04:38:02;5.82;;;2.75;;
26113;SDS011;13966;48.828;9.064;2022-10-26T04:40:28;7.05;;;2.78;;
26113;SDS011;13966;48.828;9.064;2022-10-26T04:42:54;7.35;;;2.58;;
26113;SDS011;13966;48.828;9.064;2022-10-26T04:45:20;6.30;;;2.67;;
26113;SDS011;13966;48.828;9.064;2022-10-26T04:47:47;6.57;;;2.85;;
26113;SDS011;13966;48.828;9.064;2022-10-26T04:50:13;5.20;;;2.45;;
26113;SDS011;13966;48.828;9.064;2022-10-26T04:52:39;6.75;;;2.83;;
26113;SDS011;13966;48.828;9.064;2022-10-26T04:55:05;6.50;;;2.33;;
26113;SDS011;13966;48.828;9.064;2022-10-26T04:57:32;7.60;;;2.83;;
26113;SDS011;13966;48.828;9.064;2022-10-26T04:59:59;4.32;;;2.60;;
26113;SDS011;13966;48.828;9.064;2022-10-26T05:02:26;8.45;;;3.08;;
26113;SDS011;13966;48.828;9.064;2022-10-26T05:04:52;7.63;;;2.80;;
26113;SDS011;13966;48.828;9.064;2022-10-26T05:07:18;5.22;;;2.90;;
26113;SDS011;13966;48.828;9.064;2022-10-26T05:09:44;7.05;;;2.30;;
26113;SDS011;13966;48.828;9.064;2022-10-26T05:12:10;4.72;;;1.95;;
26113;SDS011;13966;48.828;9.064;2022-10-26T05:14:36;5.70;;;2.20;;
26113;SDS011;13966;48.828;9.064;2022-10-26T05:17:02;3.03;;;1.90;;
26113;SDS011;13966;48.828;9.064;2022-10-26T05:19:28;5.05;;;2.42;;
26113;SDS011;13966;48.828;9.064;2022-10-26T05:21:54;7.13;;;1.92;;
26113;SDS011;13966;48.828;9.064;2022-10-26T05:24:20;5.28;;;1.70;;
26113;SDS011;13966;48.828;9.064;2022-10-26T05:26:46;8.50;;;2.67;;
26113;SDS011;13966;48.828;9.064;2022-10-26T05:29:12;3.95;;;1.90;;
26113;SDS011;13966;48.828;9.064;2022-10-26T05:31:38;5.00;;;2.10;;
26113;SDS011;13966;48.828;9.064;2022-10-26T05:34:04;4.97;;;2.72;;
26113;SDS011;13966;48.828;9.064;2022-10-26T05:36:30;4.65;;;2.17;;
26113;SDS011;13966;48.828;9.064;2022-10-26T05:38:56;6.22;;;2.08;;
26113;SDS011;13966;48.828;9.064;2022-10-26T05:41:22;2.85;;;1.88;;
26113;SDS011;13966;48.828;9.064;2022-10-26T05:43:48;7.22;;;1.98;;
26113;SDS011;13966;48.828;9.064;2022-10-26T05:46:14;6.20;;;2.38;;
26113;SDS011;13966;48.828;9.064;2022-10-26T05:48:40;3.30;;;2.15;;
26113;SDS011;13966;48.828;9.064;2022-10-26T05:51:06;5.72;;;1.98;;
26113;SDS011;13966;48.828;9.064;2022-10-26T05:53:32;6.88;;;2.53;;
26113;SDS011;13966;48.828;9.064;2022-10-26T05:55:58;4.13;;;1.85;;
26113;SDS011;13966;48.828;9.064;2022-10-26T05:58:24;8.50;;;2.00;;
26113;SDS011;13966;48.828;9.064;2022-10-26T06:01:01;6.97;;;2.03;;
26113;SDS011;13966;48.828;9.064;2022-10-26T06:06:03;4.22;;;1.85;;
26113;SDS011;13966;48.828;9.064;2022-10-26T06:08:29;5.45;;;1.70;;
26113;SDS011;13966;48.828;9.064;2022-10-26T06:10:56;5.07;;;2.10;;
26113;SDS011;13966;48.828;9.064;2022-10-26T06:13:26;4.78;;;1.80;;
26113;SDS011;13966;48.828;9.064;2022-10-26T06:18:48;8.00;;;2.33;;
26113;SDS011;13966;48.828;9.064;2022-10-26T06:26:16;3.78;;;2.08;;
26113;SDS011;13966;48.828;9.064;2022-10-26T06:31:35;3.22;;;1.70;;
26113;SDS011;13966;48.828;9.064;2022-10-26T06:34:02;5.13;;;1.90;;
26113;SDS011;13966;48.828;9.064;2022-10-26T06:36:28;5.75;;;2.20;;
26113;SDS011;13966;48.828;9.064;2022-10-26T06:39:16;7.10;;;2.25;;
26113;SDS011;13966;48.828;9.064;2022-10-26T06:41:41;6.47;;;1.52;;
26113;SDS011;13966;48.828;9.064;2022-10-26T06:44:07;4.45;;;1.92;;
26113;SDS011;13966;48.828;9.064;2022-10-26T06:46:40;4.50;;;2.17;;
26113;SDS011;13966;48.828;9.064;2022-10-26T06:51:40;7.15;;;2.00;;
26113;SDS011;13966;48.828;9.064;2022-10-26T06:54:19;7.15;;;2.67;;
26113;SDS011;13966;48.828;9.064;2022-10-26T06:56:48;7.63;;;2.30;;
26113;SDS011;13966;48.828;9.064;2022-10-26T06:59:16;6.53;;;2.03;;
26113;SDS011;13966;48.828;9.064;2022-10-26T07:01:43;7.07;;;2.35;;
26113;SDS011;13966;48.828;9.064;2022-10-26T07:04:09;6.47;;;2.10;;
26113;SDS011;13966;48.828;9.064;2022-10-26T07:06:35;4.03;;;2.05;;
26113;SDS011;13966;48.828;9.064;2022-10-26T07:09:01;11.13;;;2.72;;
26113;SDS011;13966;48.828;9.064;2022-10-26T07:11:27;7.22;;;3.08;;
26113;SDS011;13966;48.828;9.064;2022-10-26T07:13:53;4.60;;;2.20;;
26113;SDS011;13966;48.828;9.064;2022-10-26T07:16:19;7.80;;;2.40;;
26113;SDS011;13966;48.828;9.064;2022-10-26T07:18:47;4.68;;;2.03;;
26113;SDS011;13966;48.828;9.064;2022-10-26T07:21:13;8.18;;;2.35;;
26113;SDS011;13966;48.828;9.064;2022-10-26T07:23:39;8.00;;;2.67;;
26113;SDS011;13966;48.828;9.064;2022-10-26T07:26:05;9.18;;;2.65;;
26113;SDS011;13966;48.828;9.064;2022-10-26T07:28:31;4.00;;;2.30;;
26113;SDS011;13966;48.828;9.064;2022-10-26T07:30:57;4.65;;;2.03;;
26113;SDS011;13966;48.828;9.064;2022-10-26T07:33:23;6.93;;;2.42;;
26113;SDS011;13966;48.828;9.064;2022-10-26T07:35:49;6.18;;;2.42;;
26113;SDS011;13966;48.828;9.064;2022-10-26T07:38:16;7.38;;;2.60;;
26113;SDS011;13966;48.828;9.064;2022-10-26T07:40:42;7.32;;;2.33;;
26113;SDS011;13966;48.828;9.064;2022-10-26T07:43:08;8.43;;;2.58;;
26113;SDS011;13966;48.828;9.064;2022-10-26T07:45:34;7.03;;;2.15;;
26113;SDS011;13966;48.828;9.064;2022-10-26T07:48:00;5.28;;;2.08;;
26113;SDS011;13966;48.828;9.064;2022-10-26T07:50:27;5.93;;;2.25;;
26113;SDS011;13966;48.828;9.064;2022-10-26T07:52:53;6.20;;;2.38;;
26113;SDS011;13966;48.828;9.064;2022-10-26T07:55:19;6.90;;;2.25;;
26113;SDS011;13966;48.828;9.064;2022-10-26T07:57:45;7.70;;;2.60;;
26113;SDS011;13966;48.828;9.064;2022-10-26T08:00:11;5.18;;;2.45;;
26113;SDS011;13966;48.828;9.064;2022-10-26T08:02:37;6.43;;;2.55;;
26113;SDS011;13966;48.828;9.064;2022-10-26T08:05:03;9.82;;;2.38;;
26113;SDS011;13966;48.828;9.064;2022-10-26T08:07:29;7.40;;;2.30;;
26113;SDS011;13966;48.828;9.064;2022-10-26T08:09:55;7.50;;;2.65;;
26113;SDS011;13966;48.828;9.064;2022-10-26T08:12:21;7.13;;;1.95;;
26113;SDS011;13966;48.828;9.064;2022-10-26T08:14:47;4.82;;;2.42;;
26113;SDS011;13966;48.828;9.064;2022-10-26T08:17:13;9.43;;;2.30;;
26113;SDS011;13966;48.828;9.064;2022-10-26T08:19:39;9.05;;;2.90;;
26113;SDS011;13966;48.828;9.064;2022-10-26T08:22:05;7.45;;;2.45;;
26113;SDS011;13966;48.828;9.064;2022-10-26T08:24:31;7.72;;;2.35;;
26113;SDS011;13966;48.828;9.064;2022-10-26T08:26:57;7.72;;;2.53;;
26113;SDS011;13966;48.828;9.064;2022-10-26T08:29:23;11.57;;;2.30;;
26113;SDS011;13966;48.828;9.064;2022-10-26T08:31:49;9.88;;;2.60;;
26113;SDS011;13966;48.828;9.064;2022-10-26T08:34:15;6.40;;;2.40;;
26113;SDS011;13966;48.828;9.064;2022-10-26T08:36:41;7.07;;;2.53;;
26113;SDS011;13966;48.828;9.064;2022-10-26T08:39:07;9.40;;;2.22;;
26113;SDS011;13966;48.828;9.064;2022-10-26T08:44:04;5.45;;;2.17;;
26113;SDS011;13966;48.828;9.064;2022-10-26T08:46:33;7.07;;;2.50;;
26113;SDS011;13966;48.828;9.064;2022-10-26T08:49:08;3.90;;;2.28;;
26113;SDS011;13966;48.828;9.064;2022-10-26T08:51:35;4.88;;;2.40;;
26113;SDS011;13966;48.828;9.064;2022-10-26T08:54:04;4.03;;;2.00;;
26113;SDS011;13966;48.828;9.064;2022-10-26T08:56:34;12.75;;;2.70;;
26113;SDS011;13966;48.828;9.064;2022-10-26T09:01:50;8.73;;;2.70;;
26113;SDS011;13966;48.828;9.064;2022-10-26T09:04:16;7.82;;;2.58;;
26113;SDS011;13966;48.828;9.064;2022-10-26T09:15:04;7.38;;;2.20;;
26113;SDS011;13966;48.828;9.064;2022-10-26T09:17:43;6.57;;;2.08;;
26113;SDS011;13966;48.828;9.064;2022-10-26T09:23:21;5.13;;;2.05;;
26113;SDS011;13966;48.828;9.064;2022-10-26T09:26:00;5.95;;;2.15;;
26113;SDS011;13966;48.828;9.064;2022-10-26T09:28:33;7.70;;;2.10;;
26113;SDS011;13966;48.828;9.064;2022-10-26T09:31:00;6.53;;;2.20;;
26113;SDS011;13966;48.828;9.064;2022-10-26T09:33:27;10.25;;;2.42;;
26113;SDS011;13966;48.828;9.064;2022-10-26T09:36:04;8.98;;;2.45;;
26113;SDS011;13966;48.828;9.064;2022-10-26T09:38:38;6.97;;;2.20;;
26113;SDS011;13966;48.828;9.064;2022-10-26T09:43:42;8.32;;;2.35;;
26113;SDS011;13966;48.828;9.064;2022-10-26T09:46:13;7.50;;;2.60;;
26113;SDS011;13966;48.828;9.064;2022-10-26T09:48:54;8.02;;;2.33;;
26113;SDS011;13966;48.828;9.064;2022-10-26T09:51:20;6.78;;;2.05;;
26113;SDS011;13966;48.828;9.064;2022-10-26T09:53:47;9.73;;;2.00;;
26113;SDS011;13966;48.828;9.064;2022-10-26T09:56:14;7.38;;;2.30;;
26113;SDS011;13966;48.828;9.064;2022-10-26T09:58:41;10.90;;;2.45;;
26113;SDS011;13966;48.828;9.064;2022-10-26T10:06:40;10.35;;;2.38;;
26113;SDS011;13966;48.828;9.064;2022-10-26T10:09:13;8.50;;;2.30;;
26113;SDS011;13966;48.828;9.064;2022-10-26T10:11:40;6.07;;;1.90;;
26113;SDS011;13966;48.828;9.064;2022-10-26T10:14:08;7.80;;;2.45;;
26113;SDS011;13966;48.828;9.064;2022-10-26T10:19:04;8.85;;;2.47;;
26113;SDS011;13966;48.828;9.064;2022-10-26T10:21:34;7.35;;;2.05;;
26113;SDS011;13966;48.828;9.064;2022-10-26T10:24:01;7.50;;;2.00;;
26113;SDS011;13966;48.828;9.064;2022-10-26T10:26:27;7.72;;;2.08;;
26113;SDS011;13966;48.828;9.064;2022-10-26T10:28:59;11.73;;;2.00;;
26113;SDS011;13966;48.828;9.064;2022-10-26T10:31:31;7.63;;;2.35;;
26113;SDS011;13966;48.828;9.064;2022-10-26T10:33:57;8.63;;;2.47;;
26113;SDS011;13966;48.828;9.064;2022-10-26T10:36:24;9.30;;;2.47;;
26113;SDS011;13966;48.828;9.064;2022-10-26T10:38:53;8.40;;;2.15;;
26113;SDS011;13966;48.828;9.064;2022-10-26T10:43:46;8.50;;;2.28;;
26113;SDS011;13966;48.828;9.064;2022-10-26T10:46:16;5.80;;;1.90;;
26113;SDS011;13966;48.828;9.064;2022-10-26T10:48:46;8.90;;;2.10;;
26113;SDS011;13966;48.828;9.064;2022-10-26T10:51:16;7.25;;;2.08;;
26113;SDS011;13966;48.828;9.064;2022-10-26T10:53:44;4.35;;;1.50;;
26113;SDS011;13966;48.828;9.064;2022-10-26T10:58:43;4.47;;;1.95;;
26113;SDS011;13966;48.828;9.064;2022-10-26T11:01:14;8.75;;;2.17;;
26113;SDS011;13966;48.828;9.064;2022-10-26T11:06:10;4.82;;;1.88;;
26113;SDS011;13966;48.828;9.064;2022-10-26T11:08:54;4.35;;;1.33;;
26113;SDS011;13966;48.828;9.064;2022-10-26T11:11:26;6.85;;;1.70;;
26113;SDS011;13966;48.828;9.064;2022-10-26T11:16:30;7.68;;;1.73;;
26113;SDS011;13966;48.828;9.064;2022-10-26T11:18:58;4.25;;;1.27;;
26113;SDS011;13966;48.828;9.064;2022-10-26T11:21:27;8.73;;;1.90;;
26113;SDS011;13966;48.828;9.064;2022-10-26T11:37:37;4.75;;;1.48;;
26113;SDS011;13966;48.828;9.064;2022-10-26T11:40:17;4.70;;;1.50;;
26113;SDS011;13966;48.828;9.064;2022-10-26T11:42:49;5.18;;;1.88;;
26113;SDS011;13966;48.828;9.064;2022-10-26T11:45:19;3.77;;;1.40;;
26113;SDS011;13966;48.828;9.064;2022-10-26T11:47:56;3.63;;;1.30;;
26113;SDS011;13966;48.828;9.064;2022-10-26T11:50:26;6.88;;;1.63;;
26113;SDS011;13966;48.828;9.064;2022-10-26T11:52:57;4.95;;;1.48;;
26113;SDS011;13966;48.828;9.064;2022-10-26T11:55:24;8.48;;;1.98;;
26113;SDS011;13966;48.828;9.064;2022-10-26T11:57:51;10.02;;;2.00;;
26113;SDS011;13966;48.828;9.064;2022-10-26T12:00:19;5.00;;;1.40;;
26113;SDS011;13966;48.828;9.064;2022-10-26T12:02:55;6.57;;;1.58;;
26113;SDS011;13966;48.828;9.064;2022-10-26T12:08:02;8.25;;;1.73;;
26113;SDS011;13966;48.828;9.064;2022-10-26T12:10:29;5.57;;;1.65;;
26113;SDS011;13966;48.828;9.064;2022-10-26T12:13:31;5.32;;;1.80;;
26113;SDS011;13966;48.828;9.064;2022-10-26T12:16:03;6.70;;;1.70;;
26113;SDS011;13966;48.828;9.064;2022-10-26T12:18:33;8.25;;;1.50;;
26113;SDS011;13966;48.828;9.064;2022-10-26T12:21:06;7.90;;;1.40;;
26113;SDS011;13966;48.828;9.064;2022-10-26T12:28:43;6.35;;;1.42;;
26113;SDS011;13966;48.828;9.064;2022-10-26T12:31:39;5.50;;;1.40;;
26113;SDS011;13966;48.828;9.064;2022-10-26T12:34:12;3.97;;;1.40;;
26113;SDS011;13966;48.828;9.064;2022-10-26T12:42:40;4.18;;;1.58;;
26113;SDS011;13966;48.828;9.064;2022-10-26T12:47:09;8.57;;;1.40;;
26113;SDS011;13966;48.828;9.064;2022-10-26T12:52:25;6.68;;;1.40;;
26113;SDS011;13966;48.828;9.064;2022-10-26T13:00:12;2.80;;;1.02;;
26113;SDS011;13966;48.828;9.064;2022-10-26T13:02:46;3.15;;;1.17;;
26113;SDS011;13966;48.828;9.064;2022-10-26T13:05:29;4.07;;;1.10;;
26113;SDS011;13966;48.828;9.064;2022-10-26T13:08:07;5.57;;;1.52;;
26113;SDS011;13966;48.828;9.064;2022-10-26T13:10:34;6.95;;;1.30;;
26113;SDS011;13966;48.828;9.064;2022-10-26T13:13:02;5.63;;;1.17;;
26113;SDS011;13966;48.828;9.064;2022-10-26T13:15:40;5.10;;;1.30;;
26113;SDS011;13966;48.828;9.064;2022-10-26T13:18:17;7.05;;;1.30;;
26113;SDS011;13966;48.828;9.064;2022-10-26T13:23:30;2.35;;;1.15;;
26113;SDS011;13966;48.828;9.064;2022-10-26T13:26:09;5.50;;;1.38;;
26113;SDS011;13966;48.828;9.064;2022-10-26T13:33:50;7.70;;;1.30;;
26113;SDS011;13966;48.828;9.064;2022-10-26T13:38:42;7.93;;;1.60;;
26113;SDS011;13966;48.828;9.064;2022-10-26T13:41:13;3.60;;;1.20;;
26113;SDS011;13966;48.828;9.064;2022-10-26T13:43:41;3.35;;;1.05;;
26113;SDS011;13966;48.828;9.064;2022-10-26T13:46:12;3.45;;;1.23;;
26113;SDS011;13966;48.828;9.064;2022-10-26T13:48:43;11.30;;;1.60;;
26113;SDS011;13966;48.828;9.064;2022-10-26T13:51:24;6.95;;;1.27;;
26113;SDS011;13966;48.828;9.064;2022-10-26T13:56:32;3.30;;;1.17;;
26113;SDS011;13966;48.828;9.064;2022-10-26T13:59:07;5.25;;;1.35;;
26113;SDS011;13966;48.828;9.064;2022-10-26T14:01:34;8.43;;;1.58;;
26113;SDS011;13966;48.828;9.064;2022-10-26T14:04:13;5.72;;;1.40;;
26113;SDS011;13966;48.828;9.064;2022-10-26T14:06:39;3.25;;;1.17;;
26113;SDS011;13966;48.828;9.064;2022-10-26T14:09:13;6.63;;;1.60;;
26113;SDS011;13966;48.828;9.064;2022-10-26T14:11:45;5.35;;;1.50;;
26113;SDS011;13966;48.828;9.064;2022-10-26T14:14:13;4.50;;;1.42;;
26113;SDS011;13966;48.828;9.064;2022-10-26T14:16:41;4.53;;;1.90;;
26113;SDS011;13966;48.828;9.064;2022-10-26T14:19:14;3.50;;;1.30;;
26113;SDS011;13966;48.828;9.064;2022-10-26T14:21:44;5.80;;;1.40;;
26113;SDS011;13966;48.828;9.064;2022-10-26T14:26:40;4.20;;;1.33;;
26113;SDS011;13966;48.828;9.064;2022-10-26T14:29:16;5.50;;;1.40;;
26113;SDS011;13966;48.828;9.064;2022-10-26T14:31:43;3.95;;;1.13;;
26113;SDS011;13966;48.828;9.064;2022-10-26T14:34:10;6.90;;;1.40;;
26113;SDS011;13966;48.828;9.064;2022-10-26T14:39:06;7.43;;;1.67;;
26113;SDS011;13966;48.828;9.064;2022-10-26T14:41:34;11.13;;;1.55;;
26113;SDS011;13966;48.828;9.064;2022-10-26T14:44:00;4.22;;;1.55;;
26113;SDS011;13966;48.828;9.064;2022-10-26T14:46:28;5.65;;;1.60;;
26113;SDS011;13966;48.828;9.064;2022-10-26T14:48:56;5.30;;;1.55;;
26113;SDS011;13966;48.828;9.064;2022-10-26T14:51:33;1.92;;;0.98;;
26113;SDS011;13966;48.828;9.064;2022-10-26T14:53:59;4.20;;;1.05;;
26113;SDS011;13966;48.828;9.064;2022-10-26T14:58:53;3.92;;;1.20;;
26113;SDS011;13966;48.828;9.064;2022-10-26T15:01:23;1.73;;;0.75;;
26113;SDS011;13966;48.828;9.064;2022-10-26T15:04:21;5.68;;;1.25;;
26113;SDS011;13966;48.828;9.064;2022-10-26T15:06:39;8.00;;;1.30;;
26113;SDS011;13966;48.828;9.064;2022-10-26T15:09:15;3.80;;;1.33;;
26113;SDS011;13966;48.828;9.064;2022-10-26T15:11:52;6.07;;;1.38;;
26113;SDS011;13966;48.828;9.064;2022-10-26T15:14:18;5.28;;;1.40;;
26113;SDS011;13966;48.828;9.064;2022-10-26T15:16:49;6.07;;;1.38;;
26113;SDS011;13966;48.828;9.064;2022-10-26T15:19:15;6.05;;;1.30;;
26113;SDS011;13966;48.828;9.064;2022-10-26T15:21:47;4.03;;;1.20;;
26113;SDS011;13966;48.828;9.064;2022-10-26T15:24:28;7.55;;;1.55;;
26113;SDS011;13966;48.828;9.064;2022-10-26T15:26:54;5.25;;;1.58;;
26113;SDS011;13966;48.828;9.064;2022-10-26T15:29:34;4.22;;;1.50;;
26113;SDS011;13966;48.828;9.064;2022-10-26T15:32:00;6.93;;;1.73;;
26113;SDS011;13966;48.828;9.064;2022-10-26T15:34:27;6.90;;;1.80;;
26113;SDS011;13966;48.828;9.064;2022-10-26T15:36:53;3.40;;;0.93;;
26113;SDS011;13966;48.828;9.064;2022-10-26T15:39:19;6.10;;;1.30;;
26113;SDS011;13966;48.828;9.064;2022-10-26T15:41:46;6.18;;;1.60;;
26113;SDS011;13966;48.828;9.064;2022-10-26T15:44:14;6.25;;;1.85;;
26113;SDS011;13966;48.828;9.064;2022-10-26T15:46:41;5.82;;;1.77;;
26113;SDS011;13966;48.828;9.064;2022-10-26T15:49:13;11.30;;;2.05;;
26113;SDS011;13966;48.828;9.064;2022-10-26T15:51:39;9.88;;;2.20;;
26113;SDS011;13966;48.828;9.064;2022-10-26T15:54:05;7.32;;;1.95;;
26113;SDS011;13966;48.828;9.064;2022-10-26T15:56:31;7.18;;;2.25;;
26113;SDS011;13966;48.828;9.064;2022-10-26T15:58:57;13.80;;;2.80;;
26113;SDS011;13966;48.828;9.064;2022-10-26T16:01:24;6.93;;;2.20;;
26113;SDS011;13966;48.828;9.064;2022-10-26T16:03:51;7.75;;;2.25;;
26113;SDS011;13966;48.828;9.064;2022-10-26T16:06:22;9.40;;;2.13;;
26113;SDS011;13966;48.828;9.064;2022-10-26T16:08:50;7.78;;;2.08;;
26113;SDS011;13966;48.828;9.064;2022-10-26T16:11:17;5.50;;;2.55;;
26113;SDS011;13966;48.828;9.064;2022-10-26T16:13:43;13.20;;;2.15;;
26113;SDS011;13966;48.828;9.064;2022-10-26T16:16:12;5.32;;;1.70;;
26113;SDS011;13966;48.828;9.064;2022-10-26T16:18:39;10.95;;;2.20;;
26113;SDS011;13966;48.828;9.064;2022-10-26T16:21:05;6.30;;;2.50;;
26113;SDS011;13966;48.828;9.064;2022-10-26T16:23:31;7.65;;;2.05;;
26113;SDS011;13966;48.828;9.064;2022-10-26T16:25:57;6.72;;;2.30;;
26113;SDS011;13966;48.828;9.064;2022-10-26T16:28:23;10.88;;;2.30;;
26113;SDS011;13966;48.828;9.064;2022-10-26T16:30:49;7.88;;;2.13;;
26113;SDS011;13966;48.828;9.064;2022-10-26T16:33:15;9.25;;;2.78;;
26113;SDS011;13966;48.828;9.064;2022-10-26T16:35:41;7.82;;;2.10;;
26113;SDS011;13966;48.828;9.064;2022-10-26T16:38:07;11.73;;;2.95;;
26113;SDS011;13966;48.828;9.064;2022-10-26T16:40:33;7.72;;;2.33;;
26113;SDS011;13966;48.828;9.064;2022-10-26T16:42:59;8.20;;;2.70;;
26113;SDS011;13966;48.828;9.064;2022-10-26T16:45:25;9.77;;;2.50;;
26113;SDS011;13966;48.828;9.064;2022-10-26T16:47:51;8.45;;;2.40;;
26113;SDS011;13966;48.828;9.064;2022-10-26T16:50:17;9.07;;;2.60;;
26113;SDS011;13966;48.828;9.064;2022-10-26T16:52:46;8.27;;;2.97;;
26113;SDS011;13966;48.828;9.064;2022-10-26T16:55:12;9.65;;;2.80;;
26113;SDS011;13966;48.828;9.064;2022-10-26T16:57:38;11.80;;;2.65;;
26113;SDS011;13966;48.828;9.064;2022-10-26T17:00:04;9.25;;;3.22;;
26113;SDS011;13966;48.828;9.064;2022-10-26T17:02:30;11.65;;;3.03;;
26113;SDS011;13966;48.828;9.064;2022-10-26T17:04:57;14.68;;;3.10;;
26113;SDS011;13966;48.828;9.064;2022-10-26T17:07:23;14.57;;;2.80;;
26113;SDS011;13966;48.828;9.064;2022-10-26T17:09:49;9.88;;;2.55;;
26113;SDS011;13966;48.828;9.064;2022-10-26T17:12:15;8.82;;;2.38;;